createdAt,value
2022-12-06T00:01:32.741Z,93362.72
2022-12-06T00:06:44.530Z,93369.19
2022-12-06T00:11:53.061Z,93360.74
2022-12-06T00:17:00.177Z,93359.48
2022-12-06T00:22:07.091Z,93358.34
2022-12-06T00:27:13.891Z,93365.67
2022-12-06T00:32:20.898Z,93359.64
2022-12-06T00:37:27.894Z,93348.78
2022-12-06T00:42:34.855Z,93347.36
2022-12-06T00:47:41.850Z,93346.06
2022-12-06T00:52:48.710Z,93351.00
2022-12-06T00:57:55.643Z,93346.54
2022-12-06T01:03:03.168Z,93348.44
2022-12-06T01:08:10.156Z,93349.33
2022-12-06T01:13:16.990Z,93353.00
2022-12-06T01:18:24.590Z,93356.97
2022-12-06T01:23:31.538Z,93357.95
2022-12-06T01:28:38.398Z,93358.79
2022-12-06T01:33:45.586Z,93346.52
2022-12-06T01:38:58.535Z,93340.49
2022-12-06T01:44:06.728Z,93335.75
2022-12-06T01:49:23.362Z,93334.16
2022-12-06T01:54:31.767Z,93336.88
2022-12-06T01:59:40.184Z,93331.51
2022-12-06T02:04:47.864Z,93333.34
2022-12-06T02:09:56.154Z,93329.40
2022-12-06T02:15:03.518Z,93325.86
2022-12-06T02:20:20.730Z,93331.83
2022-12-06T02:26:03.222Z,93320.74
2022-12-06T02:31:38.423Z,93314.63
2022-12-06T02:37:04.105Z,93314.45
2022-12-06T02:42:30.026Z,93318.69
2022-12-06T02:47:39.178Z,93321.38
2022-12-06T02:52:50.612Z,93332.17
2022-12-06T02:57:57.815Z,93329.64
2022-12-06T03:03:43.366Z,93329.74
2022-12-06T03:09:09.327Z,93318.83
2022-12-06T03:14:25.578Z,93315.03
2022-12-06T03:19:35.937Z,93308.49
2022-12-06T03:24:45.366Z,93308.41
2022-12-06T03:29:59.528Z,93310.89
2022-12-06T03:35:10.292Z,93335.72
2022-12-06T03:40:27.115Z,93344.47
2022-12-06T03:45:44.040Z,93344.70
2022-12-06T03:51:01.143Z,93353.27
2022-12-06T03:56:08.442Z,93358.16
2022-12-06T04:01:15.237Z,93359.19
2022-12-06T04:06:22.376Z,93362.15
2022-12-06T04:11:30.141Z,93367.48
2022-12-06T04:16:54.258Z,93362.87
2022-12-06T04:22:18.529Z,93364.36
2022-12-06T04:27:43.044Z,93362.90
2022-12-06T04:33:07.386Z,93361.59
2022-12-06T04:38:31.728Z,93372.34
2022-12-06T04:43:43.639Z,93369.64
2022-12-06T04:48:50.213Z,93388.05
2022-12-06T04:53:57.375Z,93390.89
2022-12-06T04:59:04.577Z,93392.91
2022-12-06T05:04:11.444Z,93397.74
2022-12-06T05:09:18.117Z,93405.14
2022-12-06T05:14:24.825Z,93397.72
2022-12-06T05:19:32.083Z,93400.37
2022-12-06T05:24:38.890Z,93404.45
2022-12-06T05:29:45.661Z,93397.81
2022-12-06T05:34:52.669Z,93397.76
2022-12-06T05:39:59.916Z,93392.43
2022-12-06T05:45:07.573Z,93383.09
2022-12-06T05:50:14.733Z,93383.92
2022-12-06T05:55:21.471Z,93390.41
2022-12-06T06:00:28.243Z,93381.72
2022-12-06T06:05:35.384Z,93385.06
2022-12-06T06:10:42.353Z,93385.67
2022-12-06T06:15:50.899Z,93388.51
2022-12-06T06:21:01.197Z,93389.56
2022-12-06T06:26:15.320Z,93390.30
2022-12-06T06:31:22.510Z,93392.42
2022-12-06T06:36:29.781Z,93398.16
2022-12-06T06:41:36.845Z,93395.07
2022-12-06T06:46:43.938Z,93390.03
2022-12-06T06:51:51.165Z,93394.91
2022-12-06T06:56:59.540Z,93395.87
2022-12-06T07:02:06.490Z,93392.51
2022-12-06T07:07:20.612Z,93400.08
2022-12-06T07:12:22.608Z,93401.36
2022-12-06T07:17:29.615Z,93399.85
2022-12-06T07:22:36.530Z,93406.45
2022-12-06T07:27:43.526Z,93398.97
2022-12-06T07:32:50.326Z,93388.09
2022-12-06T07:37:57.138Z,93391.08
2022-12-06T07:43:21.448Z,93390.92
2022-12-06T07:48:28.206Z,93395.03
2022-12-06T07:53:35.487Z,93393.69
2022-12-06T07:58:43.245Z,93393.98
2022-12-06T08:03:50.775Z,93397.30
2022-12-06T08:08:57.931Z,93391.34
2022-12-06T08:14:05.651Z,93396.30
2022-12-06T08:19:12.400Z,93391.41
2022-12-06T08:24:19.644Z,93399.13
2022-12-06T08:29:26.727Z,93407.19
2022-12-06T08:34:33.457Z,93406.30
2022-12-06T08:39:40.202Z,93404.86
2022-12-06T08:44:47.407Z,93406.76
2022-12-06T08:49:54.551Z,93396.00
2022-12-06T08:55:02.150Z,93400.41
2022-12-06T09:00:10.637Z,93405.50
2022-12-06T09:05:17.511Z,93404.91
2022-12-06T09:10:25.104Z,93402.00
2022-12-06T09:15:31.860Z,93398.55
2022-12-06T09:20:43.782Z,93410.20
2022-12-06T09:25:50.525Z,93411.33
2022-12-06T09:30:57.901Z,93410.09
2022-12-06T09:36:11.917Z,93409.34
2022-12-06T09:41:42.562Z,93408.56
2022-12-06T09:47:11.865Z,93412.30
2022-12-06T09:52:25.727Z,93395.98
2022-12-06T09:58:09.797Z,93217.27
2022-12-06T10:03:42.318Z,93398.72
2022-12-06T10:09:21.732Z,93400.54
2022-12-06T10:14:41.776Z,93393.42
2022-12-06T10:20:11.009Z,93394.14
2022-12-06T10:25:25.390Z,93386.89
2022-12-06T10:30:34.215Z,93378.09
2022-12-06T10:35:58.039Z,93368.14
2022-12-06T10:41:15.160Z,93368.65
2022-12-06T10:47:03.084Z,93376.16
2022-12-06T10:52:32.520Z,93377.06
2022-12-06T10:58:01.593Z,93371.38
2022-12-06T11:03:24.479Z,93363.67
2022-12-06T11:08:48.276Z,93362.31
2022-12-06T11:14:15.137Z,93359.65
2022-12-06T11:19:47.058Z,93367.33
2022-12-06T11:25:10.396Z,93368.53
2022-12-06T11:30:20.850Z,93364.14
2022-12-06T11:35:30.658Z,93360.03
2022-12-06T11:40:41.368Z,93349.83
2022-12-06T11:45:50.360Z,93350.53
2022-12-06T11:50:57.577Z,93329.63
2022-12-06T11:56:23.535Z,93327.13
2022-12-06T12:01:46.211Z,93320.03
2022-12-06T12:07:00.816Z,93316.23
2022-12-06T12:12:12.296Z,93311.89
2022-12-06T12:17:23.394Z,93315.91
2022-12-06T12:22:43.139Z,93324.66
2022-12-06T12:27:54.317Z,93314.59
2022-12-06T12:33:17.590Z,93306.54
2022-12-06T12:38:31.916Z,93307.60
2022-12-06T12:43:39.713Z,93308.53
2022-12-06T12:48:49.961Z,93305.46
2022-12-06T12:54:07.054Z,93317.22
2022-12-06T12:59:17.576Z,93309.67
2022-12-06T13:04:37.194Z,93298.97
2022-12-06T13:10:05.502Z,93298.03
2022-12-06T13:15:22.437Z,93292.51
2022-12-06T13:20:35.007Z,93291.83
2022-12-06T13:25:44.598Z,93291.56
2022-12-06T13:30:55.723Z,93284.96
2022-12-06T13:36:07.216Z,93283.88
2022-12-06T13:41:20.205Z,93280.31
2022-12-06T13:46:29.971Z,93277.05
2022-12-06T13:51:43.692Z,93275.78
2022-12-06T13:56:50.541Z,93271.52
2022-12-06T14:01:59.527Z,93264.58
2022-12-06T14:12:22.582Z,93269.03
2022-12-06T14:18:01.711Z,93282.41
2022-12-06T14:22:50.316Z,93283.12
2022-12-06T14:28:10.684Z,93294.11
2022-12-06T14:33:26.538Z,93301.22
2022-12-06T14:38:34.224Z,93297.33
2022-12-06T14:43:42.701Z,93297.61
2022-12-06T14:49:07.447Z,93309.41
2022-12-06T14:54:36.805Z,93310.44
2022-12-06T15:04:52.400Z,93312.84
2022-12-06T15:10:02.664Z,93313.67
2022-12-06T15:15:39.319Z,93309.89
2022-12-06T15:20:46.607Z,93324.50
2022-12-06T15:25:53.317Z,93323.87
2022-12-06T15:31:00.817Z,93313.77
2022-12-06T15:36:07.846Z,93310.45
2022-12-06T15:41:24.207Z,93320.02
2022-12-06T15:46:33.045Z,93321.73
2022-12-06T15:51:39.940Z,93327.94
2022-12-06T15:56:47.348Z,93329.28
2022-12-06T16:01:54.205Z,93334.64
2022-12-06T16:07:01.701Z,93327.14
2022-12-06T16:12:08.901Z,93321.50
2022-12-06T16:17:15.948Z,93314.84
2022-12-06T16:22:27.193Z,93313.55
2022-12-06T16:27:34.357Z,93316.56
2022-12-06T16:32:41.695Z,93319.30
2022-12-06T16:37:48.840Z,93315.03
2022-12-06T16:42:55.679Z,93318.60
2022-12-06T16:48:02.813Z,93319.14
2022-12-06T16:53:11.062Z,93321.95
2022-12-06T16:58:18.256Z,93321.19
2022-12-06T17:03:25.939Z,93319.78
2022-12-06T17:08:33.042Z,93327.11
2022-12-06T17:13:40.008Z,93324.44
2022-12-06T17:18:48.733Z,93326.31
2022-12-06T17:23:55.996Z,93325.01
2022-12-06T17:29:04.830Z,93326.02
2022-12-06T17:34:17.315Z,93332.84
2022-12-06T17:39:24.524Z,93324.50
2022-12-06T17:44:31.946Z,93327.55
2022-12-06T17:49:38.770Z,93324.02
2022-12-06T17:54:46.128Z,93319.58
2022-12-06T17:59:53.286Z,93322.36
2022-12-06T18:05:01.712Z,93318.27
2022-12-06T18:10:10.251Z,93320.88
2022-12-06T18:15:18.596Z,93312.48
2022-12-06T18:20:25.483Z,93321.48
2022-12-06T18:25:32.139Z,93323.66
2022-12-06T18:30:39.721Z,93316.63
2022-12-06T18:35:47.460Z,93319.51
2022-12-06T18:40:54.744Z,93319.22
2022-12-06T18:46:04.571Z,93318.71
2022-12-06T18:51:18.382Z,93324.59
2022-12-06T18:56:27.849Z,93311.45
2022-12-06T19:01:37.358Z,93313.85
2022-12-06T19:06:46.412Z,93313.70
2022-12-06T19:11:54.040Z,93313.27
2022-12-06T19:17:01.204Z,93309.06
2022-12-06T19:22:10.169Z,93316.17
2022-12-06T19:27:20.464Z,93310.67
2022-12-06T19:32:26.627Z,93311.02
2022-12-06T19:37:33.697Z,93304.55
2022-12-06T19:42:42.517Z,93305.15
2022-12-06T19:47:49.171Z,93311.47
2022-12-06T19:52:57.725Z,93307.97
2022-12-06T19:58:04.663Z,93307.32
2022-12-06T20:03:11.675Z,93313.05
2022-12-06T20:08:18.984Z,93296.79
2022-12-06T20:13:26.662Z,93304.54
2022-12-06T20:18:33.700Z,93300.59
2022-12-06T20:23:40.717Z,93300.16
2022-12-06T20:28:49.576Z,93298.86
2022-12-06T20:34:06.292Z,93298.69
2022-12-06T20:39:23.412Z,93302.11
2022-12-06T20:44:30.615Z,93297.03
2022-12-06T20:49:40.181Z,93289.27
2022-12-06T20:54:47.192Z,93288.09
2022-12-06T20:59:54.047Z,93287.75
2022-12-06T21:05:01.007Z,93286.22
2022-12-06T21:10:10.623Z,93287.72
2022-12-06T21:15:17.325Z,93103.34
2022-12-06T21:20:24.061Z,93290.72
2022-12-06T21:25:31.379Z,93286.58
2022-12-06T21:30:38.264Z,93288.11
2022-12-06T21:35:45.810Z,93279.60
2022-12-06T21:40:56.410Z,93279.16
2022-12-06T21:46:11.340Z,93283.08
2022-12-06T21:51:18.739Z,93283.94
2022-12-06T21:56:28.967Z,93286.14
2022-12-06T22:01:36.229Z,93286.04
2022-12-06T22:06:42.994Z,93283.33
2022-12-06T22:11:50.291Z,93280.59
2022-12-06T22:16:57.662Z,93279.09
2022-12-06T22:22:04.878Z,93274.62
2022-12-06T22:27:11.853Z,93274.47
2022-12-06T22:32:18.898Z,93274.80
2022-12-06T22:37:28.588Z,93275.31
2022-12-06T22:42:35.754Z,93266.33
2022-12-06T22:47:42.917Z,93274.05
2022-12-06T22:52:49.786Z,93268.09
2022-12-06T22:57:56.888Z,93268.78
2022-12-06T23:03:04.104Z,93266.66
2022-12-06T23:08:11.220Z,93266.83
2022-12-06T23:13:18.121Z,93257.97
2022-12-06T23:18:25.317Z,93245.06
2022-12-06T23:23:32.430Z,93246.63
2022-12-06T23:28:39.711Z,93240.00
2022-12-06T23:33:48.728Z,93243.41
2022-12-06T23:38:56.723Z,93237.11
2022-12-06T23:44:04.172Z,93238.77
2022-12-06T23:49:17.665Z,93229.34
2022-12-06T23:54:24.387Z,93234.59
2022-12-06T23:59:31.473Z,93230.31
